Time;durP1;ratioP1;P1;durP2;ratioP2;P2;SDS_P1;SDS_P2;PMS_P1;PMS_P2;Temp;Humidity;BMP_temperature;BMP_pressure;BME280_temperature;BME280_humidity;BME280_pressure;Samples;Min_cycle;Max_cycle;Signal;HPM_P1;HPM_P2
2021/10/15 00:01:51;;;;;;;;;;;16.60;29.40;;;;;;4359434;32;20503;-38
2021/10/15 00:04:17;;;;;;;;;;;16.60;29.10;;;;;;4359412;32;20000;-38
2021/10/15 00:06:43;;;;;;;;;;;16.50;29.00;;;;;;4358844;32;20103;-39
2021/10/15 00:09:09;;;;;;;;;;;16.50;29.40;;;;;;4359182;32;20041;-39
2021/10/15 00:11:35;;;;;;;;;;;16.50;29.70;;;;;;4358989;32;20399;-38
2021/10/15 00:14:01;;;;;;;;;;;16.50;29.70;;;;;;4359072;32;19973;-38
2021/10/15 00:16:28;;;;;;;;;;;16.50;29.60;;;;;;4358644;32;19972;-39
2021/10/15 00:18:55;;;;;;;;;;;16.50;29.50;;;;;;4358763;32;20371;-38
2021/10/15 00:21:21;;;;;;;;;;;16.40;29.60;;;;;;4344900;32;19974;-38
2021/10/15 00:23:47;;;;;;;;;;;16.40;29.90;;;;;;4358916;32;20054;-38
2021/10/15 00:26:13;;;;;;;;;;;16.40;29.90;;;;;;4358883;32;19971;-39
2021/10/15 00:28:39;;;;;;;;;;;16.40;30.00;;;;;;4358962;32;20072;-39
2021/10/15 00:31:05;;;;;;;;;;;16.40;30.70;;;;;;4359099;32;20001;-37
2021/10/15 00:33:32;;;;;;;;;;;16.40;30.60;;;;;;4358804;32;19986;-39
2021/10/15 00:35:58;;;;;;;;;;;16.40;31.00;;;;;;4358898;32;19967;-38
2021/10/15 00:38:24;;;;;;;;;;;16.50;31.50;;;;;;4358817;32;19965;-39
2021/10/15 00:40:50;;;;;;;;;;;16.50;31.40;;;;;;4358478;32;20042;-39
2021/10/15 00:43:16;;;;;;;;;;;16.50;31.60;;;;;;4358433;32;20001;-39
2021/10/15 00:45:43;;;;;;;;;;;16.50;31.40;;;;;;4363145;32;19970;-39
2021/10/15 00:48:10;;;;;;;;;;;16.50;31.80;;;;;;4373605;32;20369;-38
2021/10/15 00:50:36;;;;;;;;;;;16.50;32.20;;;;;;4373381;32;19974;-39
2021/10/15 00:53:03;;;;;;;;;;;16.50;31.90;;;;;;4373720;32;19965;-40
2021/10/15 00:55:30;;;;;;;;;;;16.50;31.70;;;;;;4359660;32;19966;-39
2021/10/15 00:57:56;;;;;;;;;;;16.40;31.20;;;;;;4373415;32;20062;-39
2021/10/15 01:00:23;;;;;;;;;;;16.40;31.40;;;;;;4373924;32;19998;-38
2021/10/15 01:02:51;;;;;;;;;;;16.40;31.50;;;;;;4362395;32;19973;-40
2021/10/15 01:05:17;;;;;;;;;;;16.40;31.50;;;;;;4362601;32;20004;-39
2021/10/15 01:07:43;;;;;;;;;;;16.50;31.80;;;;;;4343916;33;19975;-40
2021/10/15 01:10:10;;;;;;;;;;;16.50;32.10;;;;;;4332072;33;19978;-39
2021/10/15 01:12:36;;;;;;;;;;;16.50;32.40;;;;;;4344696;33;20476;-39
2021/10/15 01:15:03;;;;;;;;;;;16.40;32.40;;;;;;4319808;33;20050;-39
2021/10/15 01:17:29;;;;;;;;;;;16.50;32.80;;;;;;4344313;33;19970;-38
2021/10/15 01:19:55;;;;;;;;;;;16.40;32.70;;;;;;4331807;33;19975;-38
2021/10/15 01:22:26;;;;;;;;;;;16.40;33.00;;;;;;4344591;33;20014;-38
2021/10/15 01:24:52;;;;;;;;;;;16.40;33.30;;;;;;4344355;33;20049;-38
2021/10/15 01:27:18;;;;;;;;;;;16.40;33.50;;;;;;4344310;33;19987;-38
2021/10/15 01:29:45;;;;;;;;;;;16.40;33.70;;;;;;4344267;33;20080;-39
2021/10/15 01:32:11;;;;;;;;;;;16.40;34.10;;;;;;4344360;33;19971;-46
2021/10/15 01:34:37;;;;;;;;;;;16.40;34.50;;;;;;4344354;33;20062;-39
2021/10/15 01:37:03;;;;;;;;;;;16.40;34.60;;;;;;4343929;33;19978;-38
2021/10/15 01:39:30;;;;;;;;;;;16.40;35.00;;;;;;4370478;32;19954;-38
2021/10/15 01:41:56;;;;;;;;;;;16.30;35.00;;;;;;4376453;32;20070;-39
2021/10/15 01:44:22;;;;;;;;;;;16.30;35.10;;;;;;4376268;32;20005;-39
2021/10/15 01:46:49;;;;;;;;;;;16.30;34.90;;;;;;4364940;32;19965;-39
2021/10/15 01:49:15;;;;;;;;;;;16.30;34.90;;;;;;4361077;32;19997;-39
2021/10/15 01:51:41;;;;;;;;;;;16.30;35.00;;;;;;4361590;32;19963;-39
2021/10/15 01:54:07;;;;;;;;;;;16.30;34.90;;;;;;4343098;32;19983;-39
2021/10/15 01:56:34;;;;;;;;;;;16.30;34.60;;;;;;4343493;32;20394;-38
2021/10/15 01:59:00;;;;;;;;;;;16.30;34.90;;;;;;4343679;32;19987;-38
2021/10/15 02:01:27;;;;;;;;;;;16.20;35.10;;;;;;4344073;32;19974;-39
2021/10/15 02:03:53;;;;;;;;;;;16.20;35.00;;;;;;4343450;32;19967;-38
2021/10/15 02:06:19;;;;;;;;;;;16.20;34.90;;;;;;4343503;33;19979;-39
2021/10/15 02:08:45;;;;;;;;;;;16.20;35.00;;;;;;4343502;32;19990;-38
2021/10/15 02:11:11;;;;;;;;;;;16.20;35.10;;;;;;4343853;33;20060;-38
2021/10/15 02:13:37;;;;;;;;;;;16.20;35.70;;;;;;4343415;32;20006;-38
2021/10/15 02:16:04;;;;;;;;;;;16.10;35.80;;;;;;4343529;32;19978;-39
2021/10/15 02:18:30;;;;;;;;;;;16.10;36.00;;;;;;4343321;32;19974;-39
2021/10/15 02:20:56;;;;;;;;;;;16.10;36.10;;;;;;4342991;32;19974;-38
2021/10/15 02:23:23;;;;;;;;;;;16.10;36.20;;;;;;4331249;33;20014;-40
2021/10/15 02:25:49;;;;;;;;;;;16.10;36.60;;;;;;4331153;33;20037;-40
2021/10/15 02:28:15;;;;;;;;;;;16.10;36.50;;;;;;4343358;32;19967;-39
2021/10/15 02:30:41;;;;;;;;;;;16.00;36.50;;;;;;4345355;32;20013;-39
2021/10/15 02:33:07;;;;;;;;;;;16.00;36.70;;;;;;4346610;32;20049;-39
2021/10/15 02:35:34;;;;;;;;;;;16.00;37.20;;;;;;4360693;32;20437;-38
2021/10/15 02:38:02;;;;;;;;;;;15.90;37.20;;;;;;4360602;32;19965;-39
2021/10/15 02:40:29;;;;;;;;;;;15.90;37.30;;;;;;4360946;32;20026;-38
2021/10/15 02:42:56;;;;;;;;;;;15.80;37.60;;;;;;4359919;32;20353;-38
2021/10/15 02:45:22;;;;;;;;;;;15.80;37.70;;;;;;4336569;32;20061;-39
2021/10/15 02:47:49;;;;;;;;;;;15.80;38.20;;;;;;4374856;32;19966;-39
2021/10/15 02:50:15;;;;;;;;;;;15.70;38.40;;;;;;4375055;32;20428;-39
2021/10/15 02:52:41;;;;;;;;;;;15.70;38.20;;;;;;4374745;32;20426;-40
2021/10/15 02:55:08;;;;;;;;;;;15.70;38.60;;;;;;4375004;32;19966;-38
2021/10/15 02:57:34;;;;;;;;;;;15.70;38.80;;;;;;4327636;33;20498;-39
2021/10/15 03:00:00;;;;;;;;;;;15.60;38.90;;;;;;4328126;33;20042;-38
2021/10/15 03:02:26;;;;;;;;;;;15.60;39.00;;;;;;4327604;33;19998;-39
2021/10/15 03:04:52;;;;;;;;;;;15.60;39.00;;;;;;4328028;33;20029;-39
2021/10/15 03:07:19;;;;;;;;;;;15.50;39.10;;;;;;4328211;33;19977;-39
2021/10/15 03:09:48;;;;;;;;;;;15.50;39.20;;;;;;4328077;33;19972;-39
2021/10/15 03:12:14;;;;;;;;;;;15.50;39.40;;;;;;4327822;33;19979;-40
2021/10/15 03:14:41;;;;;;;;;;;15.40;39.70;;;;;;4327834;33;19973;-39
2021/10/15 03:17:07;;;;;;;;;;;15.40;40.00;;;;;;4327575;33;20005;-39
2021/10/15 03:19:35;;;;;;;;;;;15.40;39.90;;;;;;4327490;33;19967;-39
2021/10/15 03:22:01;;;;;;;;;;;15.30;40.30;;;;;;4327778;33;19994;-39
2021/10/15 03:24:27;;;;;;;;;;;15.30;40.40;;;;;;4327672;33;19974;-41
2021/10/15 03:26:53;;;;;;;;;;;15.30;40.60;;;;;;4327946;33;19978;-39
2021/10/15 03:29:19;;;;;;;;;;;15.30;41.10;;;;;;4327376;33;19982;-38
2021/10/15 03:31:45;;;;;;;;;;;15.30;41.40;;;;;;4327451;33;20058;-39
2021/10/15 03:34:12;;;;;;;;;;;15.20;41.60;;;;;;4334813;32;19985;-39
2021/10/15 03:36:38;;;;;;;;;;;15.20;42.10;;;;;;4360174;32;19973;-46
2021/10/15 03:39:04;;;;;;;;;;;15.20;42.40;;;;;;4374421;32;19958;-41
2021/10/15 03:41:30;;;;;;;;;;;15.20;42.60;;;;;;4374365;32;19966;-40
2021/10/15 03:43:56;;;;;;;;;;;15.20;42.60;;;;;;4373999;32;20075;-40
2021/10/15 03:46:23;;;;;;;;;;;15.20;43.60;;;;;;4365549;32;19974;-41
2021/10/15 03:48:49;;;;;;;;;;;15.20;42.80;;;;;;4359274;32;19969;-40
2021/10/15 03:51:15;;;;;;;;;;;15.20;43.10;;;;;;4359413;32;19958;-40
2021/10/15 03:53:41;;;;;;;;;;;15.20;43.00;;;;;;4359504;32;20038;-41
2021/10/15 03:56:07;;;;;;;;;;;15.20;43.30;;;;;;4359201;32;19974;-39
2021/10/15 03:58:34;;;;;;;;;;;15.20;43.40;;;;;;4359177;32;20083;-41
2021/10/15 04:01:00;;;;;;;;;;;15.30;43.40;;;;;;4359249;32;19973;-40
2021/10/15 04:03:26;;;;;;;;;;;15.30;43.40;;;;;;4359239;32;19970;-39
2021/10/15 04:05:52;;;;;;;;;;;15.30;43.80;;;;;;4359455;32;19974;-41
2021/10/15 04:08:19;;;;;;;;;;;15.30;44.10;;;;;;4358732;32;19982;-40
2021/10/15 04:10:45;;;;;;;;;;;15.40;44.10;;;;;;4359073;32;20010;-39
2021/10/15 04:13:11;;;;;;;;;;;15.40;44.10;;;;;;4358798;32;20399;-40
2021/10/15 04:15:37;;;;;;;;;;;15.40;44.30;;;;;;4358957;32;19955;-41
2021/10/15 04:18:03;;;;;;;;;;;15.40;44.40;;;;;;4359064;32;19969;-42
2021/10/15 04:20:30;;;;;;;;;;;15.50;44.30;;;;;;4358449;32;20487;-40
2021/10/15 04:22:56;;;;;;;;;;;15.50;44.30;;;;;;4358616;32;20057;-40
2021/10/15 04:25:22;;;;;;;;;;;15.50;44.30;;;;;;4359126;32;20371;-39
2021/10/15 04:27:48;;;;;;;;;;;15.50;44.30;;;;;;4358749;32;19971;-40
2021/10/15 04:30:14;;;;;;;;;;;15.50;44.40;;;;;;4358623;32;19970;-40
2021/10/15 04:32:41;;;;;;;;;;;15.60;44.60;;;;;;4358618;32;19969;-38
2021/10/15 04:35:07;;;;;;;;;;;15.60;44.80;;;;;;4359301;32;19967;-39
2021/10/15 04:37:34;;;;;;;;;;;15.60;44.70;;;;;;4344492;32;20046;-39
2021/10/15 04:40:00;;;;;;;;;;;15.70;45.10;;;;;;4358393;32;20436;-40
2021/10/15 04:42:26;;;;;;;;;;;15.70;45.00;;;;;;4358817;32;19969;-39
2021/10/15 04:44:52;;;;;;;;;;;15.70;45.30;;;;;;4358300;32;20483;-40
2021/10/15 04:47:18;;;;;;;;;;;15.80;45.60;;;;;;4372486;32;19997;-39
2021/10/15 04:49:44;;;;;;;;;;;15.80;45.50;;;;;;4373668;32;20046;-39
2021/10/15 04:52:10;;;;;;;;;;;15.90;45.80;;;;;;4373312;32;20050;-40
2021/10/15 04:54:37;;;;;;;;;;;15.90;45.80;;;;;;4373391;32;19969;-40
2021/10/15 04:57:03;;;;;;;;;;;16.00;45.80;;;;;;4373142;32;20442;-39
2021/10/15 04:59:29;;;;;;;;;;;16.00;45.90;;;;;;4373778;32;19962;-40
2021/10/15 05:01:55;;;;;;;;;;;16.10;46.30;;;;;;4373304;32;20407;-39
2021/10/15 05:04:21;;;;;;;;;;;16.10;46.40;;;;;;4373383;32;19978;-39
2021/10/15 05:06:48;;;;;;;;;;;16.20;46.50;;;;;;4373587;32;19967;-41
2021/10/15 05:09:26;;;;;;;;;;;16.20;46.40;;;;;;4372949;32;19996;-39
2021/10/15 05:11:54;;;;;;;;;;;16.20;46.40;;;;;;4373268;32;19970;-40
2021/10/15 05:14:20;;;;;;;;;;;16.30;46.60;;;;;;4373404;32;19987;-39
2021/10/15 05:16:46;;;;;;;;;;;16.40;46.80;;;;;;4347205;32;19958;-40
2021/10/15 05:19:12;;;;;;;;;;;16.40;46.80;;;;;;4373399;32;20041;-39
2021/10/15 05:21:38;;;;;;;;;;;16.40;46.70;;;;;;4372876;32;19962;-40
2021/10/15 05:24:05;;;;;;;;;;;16.40;46.60;;;;;;4373392;32;19993;-39
2021/10/15 05:26:31;;;;;;;;;;;16.50;46.70;;;;;;4372898;32;19974;-40
2021/10/15 05:28:57;;;;;;;;;;;16.60;47.00;;;;;;4373281;32;19996;-39
2021/10/15 05:31:23;;;;;;;;;;;16.60;47.10;;;;;;4373240;32;19962;-39
2021/10/15 05:33:49;;;;;;;;;;;16.60;46.80;;;;;;4372992;32;19981;-39
2021/10/15 05:36:15;;;;;;;;;;;16.70;46.80;;;;;;4372936;32;19967;-40
2021/10/15 05:38:42;;;;;;;;;;;16.80;46.90;;;;;;4373614;32;19962;-40
2021/10/15 05:41:08;;;;;;;;;;;16.90;46.90;;;;;;4340516;33;20383;-38
2021/10/15 05:43:34;;;;;;;;;;;17.00;47.20;;;;;;4340597;33;20154;-39
2021/10/15 05:46:01;;;;;;;;;;;17.10;46.50;;;;;;4340936;33;19967;-39
2021/10/15 05:48:28;;;;;;;;;;;17.20;46.20;;;;;;4342185;32;20010;-40
2021/10/15 05:50:54;;;;;;;;;;;17.30;46.20;;;;;;4331209;33;19985;-39
2021/10/15 05:53:22;;;;;;;;;;;17.40;46.00;;;;;;4343518;33;20570;-39
2021/10/15 05:56:17;;;;;;;;;;;17.60;46.60;;;;;;4343586;33;20024;-41
2021/10/15 05:59:03;;;;;;;;;;;17.70;45.70;;;;;;4343671;33;19985;-39
2021/10/15 06:01:29;;;;;;;;;;;17.90;45.40;;;;;;4343216;33;20035;-39
2021/10/15 06:14:30;;;;;;;;;;;17.90;45.40;;;;;;4343530;33;20549;-39
2021/10/15 06:17:05;;;;;;;;;;;17.90;45.70;;;;;;4343136;33;20056;-40
2021/10/15 06:19:35;;;;;;;;;;;17.80;45.80;;;;;;4358488;32;19954;-39
2021/10/15 06:22:01;;;;;;;;;;;17.70;46.00;;;;;;4360426;32;20086;-39
2021/10/15 06:24:27;;;;;;;;;;;17.60;46.10;;;;;;4360596;32;20000;-40
2021/10/15 06:26:53;;;;;;;;;;;17.50;46.10;;;;;;4360555;32;20042;-39
2021/10/15 06:29:19;;;;;;;;;;;17.40;46.50;;;;;;4360443;32;20179;-39
2021/10/15 06:31:46;;;;;;;;;;;17.30;46.60;;;;;;4360626;32;20062;-39
2021/10/15 06:34:12;;;;;;;;;;;17.30;46.60;;;;;;4360520;32;19958;-40
2021/10/15 06:36:38;;;;;;;;;;;17.30;46.70;;;;;;4359919;32;19966;-39
2021/10/15 06:39:04;;;;;;;;;;;17.20;46.70;;;;;;4359944;32;19962;-38
2021/10/15 06:41:31;;;;;;;;;;;17.20;46.90;;;;;;4359963;32;19966;-39
2021/10/15 06:43:57;;;;;;;;;;;17.20;47.10;;;;;;4360340;32;20059;-39
2021/10/15 06:46:23;;;;;;;;;;;17.10;47.10;;;;;;4359981;32;19994;-39
2021/10/15 06:48:49;;;;;;;;;;;17.20;47.40;;;;;;4359871;32;19977;-39
2021/10/15 06:51:15;;;;;;;;;;;17.10;47.10;;;;;;4360009;32;19958;-39
2021/10/15 06:53:42;;;;;;;;;;;17.10;46.40;;;;;;4359682;32;19982;-39
2021/10/15 06:56:08;;;;;;;;;;;17.00;46.10;;;;;;4359767;32;20425;-38
2021/10/15 06:58:34;;;;;;;;;;;17.00;46.00;;;;;;4359705;32;19965;-40
2021/10/15 07:01:01;;;;;;;;;;;16.90;46.00;;;;;;4359212;32;20040;-39
2021/10/15 07:03:28;;;;;;;;;;;16.80;45.90;;;;;;4360180;32;20002;-39
2021/10/15 07:05:54;;;;;;;;;;;16.80;45.70;;;;;;4359496;32;20450;-40
2021/10/15 07:08:20;;;;;;;;;;;16.70;45.90;;;;;;4345493;32;20363;-38
2021/10/15 07:10:46;;;;;;;;;;;16.70;45.40;;;;;;4360030;32;19989;-39
2021/10/15 07:13:14;;;;;;;;;;;16.70;45.00;;;;;;4359722;32;19969;-39
2021/10/15 07:15:43;;;;;;;;;;;16.60;44.40;;;;;;4359473;32;20047;-39
2021/10/15 07:18:09;;;;;;;;;;;16.50;44.40;;;;;;4359517;32;20023;-39
2021/10/15 07:20:36;;;;;;;;;;;16.50;44.00;;;;;;4359414;32;19978;-41
2021/10/15 07:23:02;;;;;;;;;;;16.40;43.90;;;;;;4359638;32;20378;-40
2021/10/15 07:25:28;;;;;;;;;;;16.40;43.80;;;;;;4345769;32;20400;-40
2021/10/15 07:27:54;;;;;;;;;;;16.40;43.80;;;;;;4359273;32;20440;-39
2021/10/15 07:30:20;;;;;;;;;;;16.40;44.10;;;;;;4359292;32;19974;-39
2021/10/15 07:32:49;;;;;;;;;;;16.40;44.00;;;;;;4359304;32;20336;-39
2021/10/15 07:35:15;;;;;;;;;;;16.40;43.60;;;;;;4359774;32;19985;-38
2021/10/15 07:37:41;;;;;;;;;;;16.40;43.80;;;;;;4359661;32;19970;-38
2021/10/15 07:40:08;;;;;;;;;;;16.40;42.80;;;;;;4345327;32;19959;-39
2021/10/15 07:42:34;;;;;;;;;;;16.40;42.90;;;;;;4359294;32;20539;-38
2021/10/15 07:45:01;;;;;;;;;;;16.40;42.50;;;;;;4359402;32;19977;-39
2021/10/15 07:47:27;;;;;;;;;;;16.40;42.40;;;;;;4359058;32;19989;-39
2021/10/15 07:49:53;;;;;;;;;;;16.50;42.30;;;;;;4345401;32;20051;-40
2021/10/15 07:52:19;;;;;;;;;;;16.50;41.90;;;;;;4359071;32;19993;-39
2021/10/15 07:54:46;;;;;;;;;;;16.50;41.60;;;;;;4359032;32;20504;-39
2021/10/15 07:57:13;;;;;;;;;;;16.50;41.70;;;;;;4345044;32;19982;-39
2021/10/15 07:59:39;;;;;;;;;;;16.50;42.10;;;;;;4358598;32;20369;-39
2021/10/15 08:02:06;;;;;;;;;;;16.50;42.30;;;;;;4358931;32;19965;-39
2021/10/15 08:04:32;;;;;;;;;;;16.60;42.20;;;;;;4358520;32;19974;-39
2021/10/15 08:06:58;;;;;;;;;;;16.60;42.10;;;;;;4358318;32;19966;-39
2021/10/15 08:09:24;;;;;;;;;;;16.60;42.20;;;;;;4358548;32;19967;-38
2021/10/15 08:11:50;;;;;;;;;;;16.60;42.20;;;;;;4358546;32;19978;-41
2021/10/15 08:14:18;;;;;;;;;;;16.70;41.80;;;;;;4345108;32;20384;-39
2021/10/15 08:16:45;;;;;;;;;;;16.60;41.60;;;;;;4358413;32;19959;-39
2021/10/15 08:19:11;;;;;;;;;;;16.60;41.80;;;;;;4357953;32;19965;-38
2021/10/15 08:21:37;;;;;;;;;;;16.50;42.00;;;;;;4358309;32;19998;-41
2021/10/15 08:24:03;;;;;;;;;;;16.50;42.20;;;;;;4358665;32;20009;-39
2021/10/15 08:26:30;;;;;;;;;;;16.60;42.20;;;;;;4345090;32;19985;-38
2021/10/15 08:29:00;;;;;;;;;;;16.50;41.90;;;;;;4358503;32;19962;-39
2021/10/15 08:31:27;;;;;;;;;;;16.60;42.10;;;;;;4358713;32;19970;-40
2021/10/15 08:33:53;;;;;;;;;;;16.60;41.90;;;;;;4358616;32;20384;-39
2021/10/15 08:36:22;;;;;;;;;;;16.60;41.90;;;;;;4358855;32;19966;-39
2021/10/15 08:38:52;;;;;;;;;;;16.50;42.10;;;;;;4359007;32;19988;-40
2021/10/15 08:41:23;;;;;;;;;;;16.50;42.10;;;;;;4358321;32;19975;-38
2021/10/15 08:43:54;;;;;;;;;;;16.50;42.10;;;;;;4358509;32;19971;-40
2021/10/15 08:46:24;;;;;;;;;;;16.40;42.10;;;;;;4366665;32;20058;-39
2021/10/15 08:48:51;;;;;;;;;;;16.40;42.40;;;;;;4373408;32;19974;-39
2021/10/15 08:51:17;;;;;;;;;;;16.40;42.60;;;;;;4373482;32;19977;-39
2021/10/15 08:53:55;;;;;;;;;;;16.40;42.80;;;;;;4347371;32;19962;-40
2021/10/15 08:56:22;;;;;;;;;;;16.40;42.60;;;;;;4373777;32;19962;-39
2021/10/15 08:58:51;;;;;;;;;;;16.40;42.10;;;;;;4373488;32;19969;-38
2021/10/15 09:01:17;;;;;;;;;;;16.40;41.50;;;;;;4373333;32;19976;-40
2021/10/15 09:03:44;;;;;;;;;;;16.40;41.20;;;;;;4373467;32;19973;-40
2021/10/15 09:06:11;;;;;;;;;;;16.30;41.30;;;;;;4359040;32;19966;-39
2021/10/15 09:08:46;;;;;;;;;;;16.30;41.20;;;;;;4373509;32;19955;-38
2021/10/15 09:11:35;;;;;;;;;;;16.40;41.50;;;;;;4373042;32;20359;-39
2021/10/15 09:14:04;;;;;;;;;;;16.40;41.60;;;;;;4372935;32;20378;-40
2021/10/15 09:16:53;;;;;;;;;;;16.40;41.30;;;;;;4373095;32;20089;-39
2021/10/15 09:19:37;;;;;;;;;;;16.40;41.50;;;;;;4359945;32;19961;-39
2021/10/15 09:22:23;;;;;;;;;;;16.40;41.50;;;;;;4358303;32;20079;-39
2021/10/15 09:25:03;;;;;;;;;;;16.50;41.20;;;;;;4361281;32;20150;-40
2021/10/15 09:27:34;;;;;;;;;;;16.50;41.10;;;;;;4361013;32;19969;-39
2021/10/15 09:30:03;;;;;;;;;;;16.40;40.80;;;;;;4360781;32;20028;-39
2021/10/15 09:32:32;;;;;;;;;;;16.40;40.90;;;;;;4361445;32;19963;-41
2021/10/15 09:34:58;;;;;;;;;;;16.40;41.20;;;;;;4361016;32;19970;-39
2021/10/15 09:37:32;;;;;;;;;;;16.40;41.10;;;;;;4360990;32;19977;-39
2021/10/15 09:40:08;;;;;;;;;;;16.40;41.40;;;;;;4360854;32;20001;-40
2021/10/15 09:42:44;;;;;;;;;;;16.40;41.30;;;;;;4361156;32;20340;-39
2021/10/15 09:45:16;;;;;;;;;;;16.50;41.30;;;;;;4362075;32;19982;-38
2021/10/15 09:47:43;;;;;;;;;;;16.50;41.60;;;;;;4362074;32;20054;-39
2021/10/15 09:50:10;;;;;;;;;;;16.50;42.10;;;;;;4328482;33;20050;-38
2021/10/15 09:52:46;;;;;;;;;;;16.50;42.10;;;;;;4328801;33;19974;-39
2021/10/15 09:55:18;;;;;;;;;;;16.60;41.70;;;;;;4329152;33;19967;-39
2021/10/15 09:57:46;;;;;;;;;;;16.60;41.40;;;;;;4328917;33;19959;-39
2021/10/15 10:00:34;;;;;;;;;;;16.50;41.50;;;;;;4328611;33;19974;-40
2021/10/15 10:03:01;;;;;;;;;;;16.50;41.40;;;;;;4316499;33;20543;-38
2021/10/15 10:05:27;;;;;;;;;;;16.50;41.10;;;;;;4328902;33;20062;-40
2021/10/15 10:07:54;;;;;;;;;;;16.50;41.40;;;;;;4328737;33;20007;-41
2021/10/15 10:10:25;;;;;;;;;;;16.40;41.50;;;;;;4316586;33;19971;-40
2021/10/15 10:12:51;;;;;;;;;;;16.40;41.30;;;;;;4328573;33;19974;-40
2021/10/15 10:15:20;;;;;;;;;;;16.50;40.80;;;;;;4328526;33;19963;-39
2021/10/15 10:17:50;;;;;;;;;;;16.40;40.40;;;;;;4328727;33;19979;-41
2021/10/15 10:20:20;;;;;;;;;;;16.40;40.60;;;;;;4328077;33;20047;-39
2021/10/15 10:23:09;;;;;;;;;;;16.30;40.50;;;;;;4328392;33;20001;-40
2021/10/15 10:25:35;;;;;;;;;;;16.30;40.30;;;;;;4310537;33;19978;-41
2021/10/15 10:28:16;;;;;;;;;;;16.30;40.40;;;;;;4359930;32;19966;-40
2021/10/15 10:30:44;;;;;;;;;;;16.30;39.90;;;;;;4375047;32;20367;-40
2021/10/15 10:33:10;;;;;;;;;;;16.30;40.20;;;;;;4374980;32;19978;-41
2021/10/15 10:35:36;;;;;;;;;;;16.30;40.00;;;;;;4374418;32;19978;-39
2021/10/15 10:38:21;;;;;;;;;;;16.30;40.00;;;;;;4375169;32;20106;-39
2021/10/15 10:41:00;;;;;;;;;;;16.30;40.00;;;;;;4375023;32;19973;-40
2021/10/15 10:43:49;;;;;;;;;;;16.30;40.00;;;;;;4374964;32;20057;-39
2021/10/15 10:46:21;;;;;;;;;;;16.30;39.90;;;;;;4358666;32;20042;-39
2021/10/15 10:48:47;;;;;;;;;;;16.20;39.90;;;;;;4360028;32;20031;-39
2021/10/15 10:51:14;;;;;;;;;;;16.20;39.80;;;;;;4360152;32;19993;-39
2021/10/15 10:53:59;;;;;;;;;;;16.20;39.80;;;;;;4359968;32;19982;-39
2021/10/15 10:56:40;;;;;;;;;;;16.20;39.60;;;;;;4359888;32;20351;-39
2021/10/15 10:59:22;;;;;;;;;;;16.20;39.70;;;;;;4359686;32;19979;-40
2021/10/15 11:01:55;;;;;;;;;;;16.20;39.80;;;;;;4359875;32;20054;-40
2021/10/15 11:04:32;;;;;;;;;;;16.10;39.90;;;;;;4360023;32;19997;-39
2021/10/15 11:07:08;;;;;;;;;;;16.20;40.00;;;;;;4359920;32;19990;-39
2021/10/15 11:09:39;;;;;;;;;;;16.20;40.80;;;;;;4359503;32;19970;-39
2021/10/15 11:12:10;;;;;;;;;;;16.20;40.20;;;;;;4345985;32;19993;-39
2021/10/15 11:15:06;;;;;;;;;;;16.20;40.40;;;;;;4359772;32;20382;-39
2021/10/15 11:17:41;;;;;;;;;;;16.10;40.50;;;;;;4359294;32;20017;-39
2021/10/15 11:20:18;;;;;;;;;;;16.10;40.60;;;;;;4345574;32;19963;-40
2021/10/15 11:23:19;;;;;;;;;;;16.10;40.70;;;;;;4359734;32;19962;-40
2021/10/15 11:25:48;;;;;;;;;;;16.10;41.00;;;;;;4345523;32;19974;-39
2021/10/15 11:28:16;;;;;;;;;;;16.10;41.10;;;;;;4359630;32;19977;-39
2021/10/15 11:30:44;;;;;;;;;;;16.00;41.20;;;;;;4345622;32;19972;-40
2021/10/15 11:33:12;;;;;;;;;;;16.00;40.50;;;;;;4359270;32;19978;-39
2021/10/15 11:35:40;;;;;;;;;;;16.00;40.30;;;;;;4359016;32;20453;-40
2021/10/15 11:38:08;;;;;;;;;;;15.90;39.80;;;;;;4359796;32;20123;-39
2021/10/15 11:40:39;;;;;;;;;;;15.90;39.70;;;;;;4359075;32;20050;-40
2021/10/15 11:43:25;;;;;;;;;;;15.90;39.70;;;;;;4359514;32;19986;-38
2021/10/15 11:45:56;;;;;;;;;;;15.80;39.50;;;;;;4363579;32;20004;-40
2021/10/15 11:48:27;;;;;;;;;;;15.70;39.50;;;;;;4373586;32;20468;-39
2021/10/15 11:50:55;;;;;;;;;;;15.70;39.70;;;;;;4359843;32;20430;-40
2021/10/15 11:53:26;;;;;;;;;;;15.70;39.30;;;;;;4373808;32;19990;-42
2021/10/15 11:55:53;;;;;;;;;;;15.70;39.70;;;;;;4373719;32;19977;-40
2021/10/15 11:58:25;;;;;;;;;;;15.70;39.90;;;;;;4373802;32;19962;-39
2021/10/15 12:01:05;;;;;;;;;;;15.70;39.90;;;;;;4373951;32;20038;-40
2021/10/15 12:03:32;;;;;;;;;;;15.60;39.80;;;;;;4360504;32;19958;-39
2021/10/15 12:06:33;;;;;;;;;;;15.60;39.80;;;;;;4373790;32;20036;-40
2021/10/15 12:09:12;;;;;;;;;;;15.60;40.10;;;;;;4349924;32;19970;-39
2021/10/15 12:11:41;;;;;;;;;;;15.50;40.20;;;;;;4373923;32;19974;-38
2021/10/15 12:14:23;;;;;;;;;;;15.50;40.30;;;;;;4373886;32;19962;-39
2021/10/15 12:17:03;;;;;;;;;;;15.50;40.40;;;;;;4373671;32;20386;-40
2021/10/15 12:19:30;;;;;;;;;;;15.50;40.10;;;;;;4373499;32;19966;-40
2021/10/15 12:22:02;;;;;;;;;;;15.50;39.70;;;;;;4373948;32;20073;-39
2021/10/15 12:24:32;;;;;;;;;;;15.40;39.70;;;;;;4373506;32;19972;-41
2021/10/15 12:27:02;;;;;;;;;;;15.40;39.50;;;;;;4373645;32;19974;-40
2021/10/15 12:29:29;;;;;;;;;;;15.30;39.40;;;;;;4373506;32;19991;-40
2021/10/15 12:32:19;;;;;;;;;;;15.30;39.50;;;;;;4373493;32;19976;-39
2021/10/15 12:35:24;;;;;;;;;;;15.20;39.70;;;;;;4373297;32;19965;-41
2021/10/15 12:37:56;;;;;;;;;;;15.20;40.10;;;;;;4373574;32;19962;-39
2021/10/15 12:40:33;;;;;;;;;;;15.20;40.30;;;;;;4373195;32;20421;-39
2021/10/15 12:43:03;;;;;;;;;;;15.20;40.00;;;;;;4373416;32;20418;-39
2021/10/15 12:45:35;;;;;;;;;;;15.20;39.70;;;;;;4370173;32;20001;-40
2021/10/15 12:48:15;;;;;;;;;;;15.10;39.80;;;;;;4358118;32;19966;-40
2021/10/15 12:50:56;;;;;;;;;;;15.10;40.40;;;;;;4358636;32;19975;-40
2021/10/15 12:53:23;;;;;;;;;;;15.10;40.30;;;;;;4358390;32;19986;-38
2021/10/15 12:55:58;;;;;;;;;;;15.10;40.30;;;;;;4358168;32;19962;-40
2021/10/15 12:58:25;;;;;;;;;;;15.10;40.40;;;;;;4357825;32;19962;-40
2021/10/15 13:00:53;;;;;;;;;;;15.10;40.50;;;;;;4344666;32;19985;-40
2021/10/15 13:03:20;;;;;;;;;;;15.20;40.50;;;;;;4358333;32;20062;-40
2021/10/15 13:05:47;;;;;;;;;;;15.20;40.70;;;;;;4357608;32;19986;-40
2021/10/15 13:08:15;;;;;;;;;;;15.30;40.40;;;;;;4358421;32;19963;-39
2021/10/15 13:10:41;;;;;;;;;;;15.40;40.30;;;;;;4358204;32;20394;-38
2021/10/15 13:13:07;;;;;;;;;;;15.40;40.10;;;;;;4358091;32;19969;-39
2021/10/15 13:15:33;;;;;;;;;;;15.50;40.20;;;;;;4357871;32;20459;-39
2021/10/15 13:18:00;;;;;;;;;;;15.50;40.10;;;;;;4358180;32;19998;-40
2021/10/15 13:20:26;;;;;;;;;;;15.50;39.80;;;;;;4357870;32;19993;-40
2021/10/15 13:22:53;;;;;;;;;;;15.60;39.60;;;;;;4358284;32;19972;-39
2021/10/15 13:25:20;;;;;;;;;;;15.60;39.60;;;;;;4357922;32;20418;-39
2021/10/15 13:27:46;;;;;;;;;;;15.60;40.00;;;;;;4357746;32;20390;-39
2021/10/15 13:30:12;;;;;;;;;;;15.60;40.00;;;;;;4357867;32;19959;-40
2021/10/15 13:32:39;;;;;;;;;;;15.60;40.20;;;;;;4357963;32;19963;-40
2021/10/15 13:35:06;;;;;;;;;;;15.60;40.00;;;;;;4358172;32;20039;-39
2021/10/15 13:37:36;;;;;;;;;;;15.50;39.70;;;;;;4357710;32;20393;-39
2021/10/15 13:40:03;;;;;;;;;;;15.50;39.70;;;;;;4358185;32;19959;-40
2021/10/15 13:49:42;;;;;;;;;;;15.30;40.60;;;;;;4372787;32;19974;-40
2021/10/15 13:50:36;;;;;;;;;;;15.20;40.70;;;;;;4372684;32;19966;-39
2021/10/15 13:53:03;;;;;;;;;;;15.20;40.90;;;;;;4358525;32;20078;-39
2021/10/15 13:55:32;;;;;;;;;;;15.10;41.10;;;;;;4373033;32;20034;-40
2021/10/15 13:58:00;;;;;;;;;;;15.00;41.10;;;;;;4372588;32;20399;-39
2021/10/15 14:00:36;;;;;;;;;;;15.00;41.20;;;;;;4372721;32;19966;-39
2021/10/15 14:05:49;;;;;;;;;;;14.90;41.70;;;;;;4310231;33;20135;-39
2021/10/15 14:08:15;;;;;;;;;;;14.90;41.70;;;;;;4313561;33;19975;-39
2021/10/15 14:10:42;;;;;;;;;;;14.90;41.90;;;;;;4328375;33;19974;-39
2021/10/15 14:13:08;;;;;;;;;;;14.80;41.90;;;;;;4328550;33;20474;-40
2021/10/15 14:15:34;;;;;;;;;;;14.80;42.20;;;;;;4327962;33;19971;-39
2021/10/15 14:18:00;;;;;;;;;;;14.70;42.20;;;;;;4327833;33;19979;-39
2021/10/15 14:20:28;;;;;;;;;;;14.70;42.10;;;;;;4328107;33;19974;-41
2021/10/15 14:22:54;;;;;;;;;;;14.70;42.10;;;;;;4328258;33;19970;-39
2021/10/15 14:25:20;;;;;;;;;;;14.60;42.10;;;;;;4327747;33;19963;-39
2021/10/15 14:27:46;;;;;;;;;;;14.60;42.10;;;;;;4327952;33;20436;-40
2021/10/15 14:30:13;;;;;;;;;;;14.50;42.00;;;;;;4328103;33;20410;-39
2021/10/15 14:32:39;;;;;;;;;;;14.50;41.80;;;;;;4328465;33;20066;-40
2021/10/15 14:35:05;;;;;;;;;;;14.50;42.10;;;;;;4328086;33;19982;-39
2021/10/15 14:37:32;;;;;;;;;;;14.50;41.80;;;;;;4365390;32;19978;-41
2021/10/15 14:39:58;;;;;;;;;;;14.40;41.80;;;;;;4375134;32;19954;-39
2021/10/15 14:42:24;;;;;;;;;;;14.40;42.00;;;;;;4375190;32;19974;-41
2021/10/15 14:44:50;;;;;;;;;;;14.40;42.00;;;;;;4375172;32;20399;-40